Terminal Aerodrome Forecast
Issued by NWS

Home | Current Version | Previous Version | Text Only | Print | Product List | Glossary On
Versions: 1 2 3 4 5 6 7 8 9 10 11 12 13 14 15 16 17 18 19 20 21 22 23 24 25 26
000
FTUS41 KRNK 091135
TAFBCB
TAF
KBCB 091135Z 0912/1012 29007KT 6SM -SHSN SCT015 OVC035
      TEMPO 0912/0916 3SM -SHSN OVC015
     FM091800 29012G28KT P6SM -SHSN OVC035=

USA.gov is the U.S. government's official web portal to all federal, state and local government web resources and services.